Portada
METAR-TAF:

METAR-TAF

Aeropuertos :

Morón de la Frontera, España

Base Aérea de Morón

latitud: 37-09N, longitud: 005-37W, altitud: 87 m

Observación

El informe se hizo hace 59 minutos, a las 02:00 UTC
Viento 5 kt del este-sureste
Temperatura 5°C
Humedad 93%
Presión 1022 hPa
Visibilidad: 8000 m

METAR: LEMO 180200Z 12005KT 8000 NSC 05/04 Q1022 NOSIG

Hora: 03:59 (02:59 UTC)

Pronóstico

El informe se hizo hace 59 minutos, a las 02:00 UTC
Pronóstico válido del 18 a las 03 UTC al 18 a las 12 UTC
Viento 4 kt del oeste-suroeste
Visibilidad 10 km o más
Escasas nubes a una altura de 2000 ft
Temporalmente
del 18 a las 03 UTC al 18 a las 10 UTC
Visibilidad: 3000 m
Cielo nuboso a una altura de 800 ft
neblina
Probabilidad 40% :
Temporalmente
del 18 a las 03 UTC al 18 a las 09 UTC
Visibilidad: 0500 m
a una altura de 100 ft
niebla

TAF: LEMO 180200Z 1803/1812 24004KT 9999 FEW020 TEMPO 1803/1810 3000 BR BKN008 PROB40 TEMPO 1803/1809 0500 FG VV001

Observaciones y pronósticos meteorológicos de más de 4000 aeropuertos (mensajes METAR y TAF).

Los puntos amarillos y rojos representan las estaciones disponibles.

Ponga el ratón en el punto deseado para ver el nombre de la estación.

Haga clic para ver las observaciones y los pronósticos meteorológicos.

Para cambiar el mapa : haga clic en los botones verdes con una cruz de color negro para hacer un zoom, en el botón verde con un guión para alejar o en las flechas verdes para mapas adyacentes.


METAR-TAF: